createdAt,value
2022-12-26T00:02:49.065Z,8.4
2022-12-26T00:07:51.422Z,8.4
2022-12-26T00:12:53.570Z,8.4
2022-12-26T00:17:59.137Z,8.4
2022-12-26T00:23:03.750Z,8.2
2022-12-26T00:28:05.720Z,8.2
2022-12-26T00:33:07.894Z,8.2
2022-12-26T00:38:09.896Z,8.2
2022-12-26T00:43:11.920Z,8.1
2022-12-26T00:48:14.401Z,8
2022-12-26T00:53:16.534Z,7.9
2022-12-26T00:58:18.625Z,7.9
2022-12-26T01:03:21.210Z,7.9
2022-12-26T01:13:27.292Z,7.9
2022-12-26T01:18:30.193Z,8
2022-12-26T01:23:32.538Z,7.9
2022-12-26T01:28:35.450Z,8
2022-12-26T01:33:38.267Z,8
2022-12-26T01:38:41.894Z,8
2022-12-26T01:43:44.093Z,8
2022-12-26T01:48:46.169Z,8
2022-12-26T01:53:48.388Z,8
2022-12-26T01:58:50.483Z,8
2022-12-26T02:03:52.562Z,8.1
2022-12-26T02:08:54.518Z,8.1
2022-12-26T02:13:56.472Z,8.1
2022-12-26T02:18:58.804Z,8.1
2022-12-26T02:24:01.070Z,8.1
2022-12-26T02:29:03.142Z,8.1
2022-12-26T02:34:05.199Z,8.1
2022-12-26T02:39:48.113Z,8
2022-12-26T02:44:10.336Z,8
2022-12-26T02:49:12.446Z,8
2022-12-26T02:54:14.703Z,8
2022-12-26T02:59:16.735Z,7.9
2022-12-26T03:04:18.987Z,7.8
2022-12-26T03:09:21.016Z,7.8
2022-12-26T03:14:23.101Z,7.7
2022-12-26T03:19:25.241Z,7.7
2022-12-26T03:24:27.692Z,7.6
2022-12-26T03:29:29.813Z,7.5
2022-12-26T03:34:32.117Z,7.5
2022-12-26T03:39:34.183Z,7.5
2022-12-26T03:49:36.684Z,7.4
2022-12-26T03:54:38.780Z,7.3
2022-12-26T03:59:41.206Z,7.3
2022-12-26T04:04:43.302Z,7.3
2022-12-26T04:09:45.546Z,7.2
2022-12-26T04:14:47.500Z,7.2
2022-12-26T04:19:49.760Z,7.1
2022-12-26T04:24:52.240Z,7.1
2022-12-26T04:29:54.519Z,7
2022-12-26T04:34:57.372Z,7
2022-12-26T04:39:59.446Z,6.9
2022-12-26T04:45:02.169Z,6.9
2022-12-26T04:50:04.305Z,6.9
2022-12-26T04:55:06.521Z,7
2022-12-26T05:00:08.614Z,7
2022-12-26T05:05:10.740Z,6.9
2022-12-26T05:10:12.801Z,6.8
2022-12-26T05:15:15.342Z,6.8
2022-12-26T05:20:17.842Z,6.7
2022-12-26T05:25:20.486Z,6.7
2022-12-26T05:30:22.798Z,6.7
2022-12-26T05:35:25.228Z,6.7
2022-12-26T05:40:30.035Z,6.8
2022-12-26T05:45:34.107Z,6.8
2022-12-26T05:50:36.132Z,6.8
2022-12-26T05:55:38.319Z,6.8
2022-12-26T06:00:40.677Z,6.8
2022-12-26T06:05:42.826Z,6.8
2022-12-26T06:10:46.979Z,6.7
2022-12-26T06:15:49.069Z,6.7
2022-12-26T06:20:51.175Z,6.8
2022-12-26T06:25:53.623Z,6.8
2022-12-26T06:30:55.693Z,6.8
2022-12-26T06:35:57.684Z,6.8
2022-12-26T06:40:59.736Z,6.8
2022-12-26T06:46:03.078Z,6.9
2022-12-26T06:51:05.089Z,7
2022-12-26T06:56:07.295Z,7.1
2022-12-26T07:01:10.332Z,7.6
2022-12-26T07:06:12.784Z,7.6
2022-12-26T07:11:14.887Z,7.8
2022-12-26T07:16:17.048Z,8.5
2022-12-26T07:21:19.241Z,8.2
2022-12-26T07:26:21.637Z,8.1
2022-12-26T07:31:27.595Z,9.5
2022-12-26T07:36:30.512Z,9.4
2022-12-26T07:41:32.643Z,9.1
2022-12-26T07:46:35.446Z,11.7
2022-12-26T07:51:37.750Z,11.6
2022-12-26T07:56:41.052Z,14
2022-12-26T08:01:45.208Z,15.7
2022-12-26T08:06:47.759Z,15.7
2022-12-26T08:11:50.042Z,17.1
2022-12-26T08:16:55.475Z,18.4
2022-12-26T08:26:58.753Z,18.5
2022-12-26T08:32:01.294Z,19.6
2022-12-26T08:37:03.609Z,20.2
2022-12-26T08:42:08.249Z,21.1
2022-12-26T08:47:10.211Z,21.9
2022-12-26T08:52:13.071Z,21.8
2022-12-26T08:57:15.134Z,21.8
2022-12-26T09:02:18.067Z,22.3
2022-12-26T09:07:20.765Z,22.3
2022-12-26T09:12:23.278Z,24.2
2022-12-26T09:17:25.512Z,24.1
2022-12-26T09:22:36.198Z,24
2022-12-26T09:27:28.232Z,24
2022-12-26T09:32:30.910Z,23.1
2022-12-26T09:37:33.132Z,23.1
2022-12-26T09:42:35.295Z,23
2022-12-26T09:52:38.445Z,18.9
2022-12-26T09:57:40.789Z,18.8
2022-12-26T10:02:43.703Z,20.1
2022-12-26T10:07:46.076Z,20.1
2022-12-26T10:12:49.362Z,24.2
2022-12-26T10:17:51.963Z,24.3
2022-12-26T10:22:54.066Z,24.2
2022-12-26T10:27:57.308Z,22.4
2022-12-26T10:33:00.093Z,21.3
2022-12-26T10:38:02.654Z,23.3
2022-12-26T10:43:04.756Z,23.3
2022-12-26T10:48:06.971Z,24
2022-12-26T10:53:09.098Z,24.5
2022-12-26T10:58:11.058Z,23.8
2022-12-26T11:03:14.864Z,23.4
2022-12-26T11:08:17.567Z,23
2022-12-26T11:13:19.618Z,22.8
2022-12-26T11:18:22.038Z,22.9
2022-12-26T11:23:24.197Z,22.3
2022-12-26T11:28:26.624Z,22.3
2022-12-26T11:33:28.820Z,20.2
2022-12-26T11:38:31.011Z,19.5
2022-12-26T11:43:33.085Z,18.9
2022-12-26T11:48:35.278Z,19.3
2022-12-26T11:53:37.444Z,20.7
2022-12-26T11:58:39.636Z,20.1
2022-12-26T12:03:51.544Z,21
2022-12-26T12:08:43.635Z,21
2022-12-26T12:13:45.818Z,19.5
2022-12-26T12:18:48.664Z,19.4
2022-12-26T12:23:50.825Z,19.3
2022-12-26T12:28:53.875Z,18.3
2022-12-26T12:33:55.988Z,18.2
2022-12-26T12:38:59.002Z,17.4
2022-12-26T12:44:02.252Z,18
2022-12-26T12:49:04.694Z,18.4
2022-12-26T12:54:06.755Z,18.3
2022-12-26T12:59:08.746Z,19.2
2022-12-26T13:04:10.756Z,19.8
2022-12-26T13:09:12.865Z,20
2022-12-26T13:14:14.976Z,19.8
2022-12-26T13:19:17.711Z,19.6
2022-12-26T13:24:19.838Z,19.6
2022-12-26T13:29:22.176Z,18.2
2022-12-26T13:34:24.309Z,17
2022-12-26T13:39:26.596Z,16.7
2022-12-26T13:44:28.631Z,16.6
2022-12-26T13:49:30.618Z,16.7
2022-12-26T13:54:32.800Z,16
2022-12-26T13:59:34.788Z,15.7
2022-12-26T14:04:36.818Z,15.4
2022-12-26T14:09:39.023Z,15.1
2022-12-26T14:14:42.209Z,14.6
2022-12-26T14:19:44.481Z,14.6
2022-12-26T14:24:46.837Z,14.5
2022-12-26T14:29:49.276Z,14.4
2022-12-26T14:34:52.175Z,14.2
2022-12-26T14:39:54.539Z,14
2022-12-26T14:44:56.711Z,13.7
2022-12-26T14:49:58.680Z,13.6
2022-12-26T14:55:01.324Z,13.3
2022-12-26T15:00:05.757Z,13.2
2022-12-26T15:05:07.731Z,13.2
2022-12-26T15:10:09.791Z,13.1
2022-12-26T15:15:12.018Z,12.8
2022-12-26T15:20:14.188Z,12.6
2022-12-26T15:25:22.418Z,12.2
2022-12-26T15:30:24.695Z,12.2
2022-12-26T15:35:27.435Z,12.4
2022-12-26T15:40:32.487Z,12.5
2022-12-26T15:45:38.209Z,12.3
2022-12-26T15:50:40.736Z,12.3
2022-12-26T15:55:43.220Z,12.2
2022-12-26T16:00:46.059Z,12.3
2022-12-26T16:05:48.301Z,12.2
2022-12-26T16:10:57.630Z,12.2
2022-12-26T16:16:00.419Z,12.1
2022-12-26T16:21:03.197Z,12.1
2022-12-26T16:26:05.562Z,12.1
2022-12-26T16:31:08.313Z,12.1
2022-12-26T16:36:10.953Z,12.1
2022-12-26T16:41:13.016Z,12.1
2022-12-26T16:46:15.840Z,12.1
2022-12-26T16:51:18.463Z,12.1
2022-12-26T16:56:20.537Z,12
2022-12-26T17:01:23.194Z,11.7
2022-12-26T17:06:26.012Z,11.6
2022-12-26T17:11:28.344Z,11.6
2022-12-26T17:16:31.383Z,11.7
2022-12-26T17:21:33.956Z,11.6
2022-12-26T17:26:36.128Z,11.5
2022-12-26T17:31:39.011Z,11.4
2022-12-26T17:37:20.827Z,11.3
2022-12-26T17:41:43.351Z,11.3
2022-12-26T17:46:45.563Z,11.2
2022-12-26T17:52:02.753Z,11.1
2022-12-26T17:56:54.908Z,11.1
2022-12-26T18:01:57.418Z,11
2022-12-26T18:06:59.831Z,10.9
2022-12-26T18:12:02.710Z,10.9
2022-12-26T18:17:05.157Z,10.8
2022-12-26T18:22:07.309Z,10.7
2022-12-26T18:27:12.248Z,10.7
2022-12-26T18:32:15.365Z,10.5
2022-12-26T18:42:18.695Z,10.4
2022-12-26T18:47:20.958Z,10.4
2022-12-26T18:52:23.615Z,10.4
2022-12-26T18:57:25.918Z,10.3
2022-12-26T19:02:28.089Z,10.3
2022-12-26T19:07:30.204Z,10.2
2022-12-26T19:12:32.495Z,10.2
2022-12-26T19:17:34.821Z,10.2
2022-12-26T19:22:36.986Z,10.2
2022-12-26T19:27:39.035Z,10.2
2022-12-26T19:32:42.836Z,10
2022-12-26T19:37:44.967Z,10
2022-12-26T19:42:47.271Z,10.1
2022-12-26T19:47:49.341Z,10
2022-12-26T19:52:52.246Z,10
2022-12-26T19:57:54.475Z,9.9
2022-12-26T20:02:56.890Z,9.9
2022-12-26T20:07:58.897Z,9.9
2022-12-26T20:13:01.119Z,9.9
2022-12-26T20:18:03.556Z,10
2022-12-26T20:23:05.576Z,10
2022-12-26T20:28:07.568Z,10
2022-12-26T20:33:09.831Z,10
2022-12-26T20:38:12.193Z,9.9
2022-12-26T20:43:14.182Z,9.9
2022-12-26T20:48:16.580Z,9.9
2022-12-26T20:53:19.149Z,10
2022-12-26T20:58:27.188Z,10
2022-12-26T21:03:29.671Z,9.8
2022-12-26T21:08:31.813Z,9.8
2022-12-26T21:13:34.012Z,9.6
2022-12-26T21:18:35.973Z,9.6
2022-12-26T21:23:37.913Z,9.5
2022-12-26T21:28:39.976Z,9.5
2022-12-26T21:33:46.597Z,9.4
2022-12-26T21:38:48.655Z,9.3
2022-12-26T21:43:50.697Z,9.3
2022-12-26T21:48:52.746Z,9.3
2022-12-26T21:53:54.672Z,9.3
2022-12-26T21:58:56.782Z,9.2
2022-12-26T22:03:58.799Z,9
2022-12-26T22:09:00.884Z,9.1
2022-12-26T22:14:02.947Z,9.1
2022-12-26T22:19:04.971Z,9.3
2022-12-26T22:24:07.139Z,9.5
2022-12-26T22:29:09.249Z,9.6
2022-12-26T22:34:11.376Z,9.8
2022-12-26T22:39:13.301Z,9.8
2022-12-26T22:44:15.346Z,9.8
2022-12-26T22:49:17.318Z,9.8
2022-12-26T22:54:19.322Z,9.7
2022-12-26T23:00:10.632Z,9.8
2022-12-26T23:04:23.039Z,9.8
2022-12-26T23:09:27.433Z,9.7
2022-12-26T23:14:29.545Z,9.7
2022-12-26T23:19:31.585Z,9.8
2022-12-26T23:24:33.692Z,9.8
2022-12-26T23:29:35.744Z,9.7
2022-12-26T23:34:38.044Z,9.7
2022-12-26T23:39:40.071Z,9.5
2022-12-26T23:44:42.084Z,9.5
2022-12-26T23:49:44.026Z,9.5
2022-12-26T23:54:46.118Z,9.5
2022-12-26T23:59:48.176Z,9.5
